sensor_id;sensor_type;location;lat;lon;timestamp;P1;durP1;ratioP1;P2;durP2;ratioP2
71080;SDS011;58740;50.672;18.690;2024-02-21T00:00:59;16.90;;;4.90;;
71080;SDS011;58740;50.672;18.690;2024-02-21T00:03:47;15.50;;;4.60;;
71080;SDS011;58740;50.672;18.690;2024-02-21T00:06:20;10.80;;;4.30;;
71080;SDS011;58740;50.672;18.690;2024-02-21T00:08:53;14.80;;;4.90;;
71080;SDS011;58740;50.672;18.690;2024-02-21T00:11:26;12.10;;;5.10;;
71080;SDS011;58740;50.672;18.690;2024-02-21T00:13:59;19.00;;;5.50;;
71080;SDS011;58740;50.672;18.690;2024-02-21T00:16:33;18.90;;;6.10;;
71080;SDS011;58740;50.672;18.690;2024-02-21T00:19:06;14.80;;;4.90;;
71080;SDS011;58740;50.672;18.690;2024-02-21T00:21:40;16.30;;;6.60;;
71080;SDS011;58740;50.672;18.690;2024-02-21T00:24:13;15.80;;;5.80;;
71080;SDS011;58740;50.672;18.690;2024-02-21T00:26:46;12.30;;;5.10;;
71080;SDS011;58740;50.672;18.690;2024-02-21T00:29:19;16.20;;;5.30;;
71080;SDS011;58740;50.672;18.690;2024-02-21T00:31:52;18.90;;;6.20;;
71080;SDS011;58740;50.672;18.690;2024-02-21T00:34:26;18.50;;;5.80;;
71080;SDS011;58740;50.672;18.690;2024-02-21T00:36:59;14.40;;;5.10;;
71080;SDS011;58740;50.672;18.690;2024-02-21T00:39:32;15.60;;;5.30;;
71080;SDS011;58740;50.672;18.690;2024-02-21T00:42:06;10.70;;;5.00;;
71080;SDS011;58740;50.672;18.690;2024-02-21T00:44:39;15.60;;;5.70;;
71080;SDS011;58740;50.672;18.690;2024-02-21T00:47:12;19.00;;;6.20;;
71080;SDS011;58740;50.672;18.690;2024-02-21T00:49:46;15.90;;;6.00;;
71080;SDS011;58740;50.672;18.690;2024-02-21T00:52:19;19.20;;;6.10;;
71080;SDS011;58740;50.672;18.690;2024-02-21T00:54:53;13.00;;;4.50;;
71080;SDS011;58740;50.672;18.690;2024-02-21T00:57:26;15.20;;;5.40;;
71080;SDS011;58740;50.672;18.690;2024-02-21T00:59:59;22.20;;;6.70;;
71080;SDS011;58740;50.672;18.690;2024-02-21T01:02:32;15.50;;;5.70;;
71080;SDS011;58740;50.672;18.690;2024-02-21T01:05:06;22.90;;;6.40;;
71080;SDS011;58740;50.672;18.690;2024-02-21T01:07:40;14.20;;;5.10;;
71080;SDS011;58740;50.672;18.690;2024-02-21T01:10:13;14.90;;;4.80;;
71080;SDS011;58740;50.672;18.690;2024-02-21T01:12:47;16.70;;;5.50;;
71080;SDS011;58740;50.672;18.690;2024-02-21T01:15:20;20.20;;;6.10;;
71080;SDS011;58740;50.672;18.690;2024-02-21T01:17:53;14.50;;;5.10;;
71080;SDS011;58740;50.672;18.690;2024-02-21T01:20:27;17.00;;;6.20;;
71080;SDS011;58740;50.672;18.690;2024-02-21T01:23:00;15.80;;;5.80;;
71080;SDS011;58740;50.672;18.690;2024-02-21T01:25:34;17.80;;;6.60;;
71080;SDS011;58740;50.672;18.690;2024-02-21T01:28:07;18.60;;;6.80;;
71080;SDS011;58740;50.672;18.690;2024-02-21T01:30:40;17.40;;;7.10;;
71080;SDS011;58740;50.672;18.690;2024-02-21T01:33:13;19.60;;;5.90;;
71080;SDS011;58740;50.672;18.690;2024-02-21T01:35:47;22.60;;;6.10;;
71080;SDS011;58740;50.672;18.690;2024-02-21T01:38:20;13.00;;;5.90;;
71080;SDS011;58740;50.672;18.690;2024-02-21T01:40:53;18.00;;;5.50;;
71080;SDS011;58740;50.672;18.690;2024-02-21T01:43:27;14.60;;;5.90;;
71080;SDS011;58740;50.672;18.690;2024-02-21T01:46:01;16.00;;;6.00;;
71080;SDS011;58740;50.672;18.690;2024-02-21T01:48:35;14.90;;;6.00;;
71080;SDS011;58740;50.672;18.690;2024-02-21T01:51:09;18.70;;;5.60;;
71080;SDS011;58740;50.672;18.690;2024-02-21T01:53:44;12.80;;;5.90;;
71080;SDS011;58740;50.672;18.690;2024-02-21T01:56:18;18.50;;;6.30;;
71080;SDS011;58740;50.672;18.690;2024-02-21T01:58:52;16.60;;;6.20;;
71080;SDS011;58740;50.672;18.690;2024-02-21T02:01:26;17.30;;;6.30;;
71080;SDS011;58740;50.672;18.690;2024-02-21T02:04:01;17.20;;;6.10;;
71080;SDS011;58740;50.672;18.690;2024-02-21T02:06:36;21.30;;;6.50;;
71080;SDS011;58740;50.672;18.690;2024-02-21T02:09:09;18.20;;;6.30;;
71080;SDS011;58740;50.672;18.690;2024-02-21T02:11:43;20.90;;;6.70;;
71080;SDS011;58740;50.672;18.690;2024-02-21T02:14:16;14.80;;;6.20;;
71080;SDS011;58740;50.672;18.690;2024-02-21T02:16:50;13.90;;;5.80;;
71080;SDS011;58740;50.672;18.690;2024-02-21T02:19:23;16.50;;;6.60;;
71080;SDS011;58740;50.672;18.690;2024-02-21T02:22:02;14.40;;;6.10;;
71080;SDS011;58740;50.672;18.690;2024-02-21T02:24:41;20.40;;;6.00;;
71080;SDS011;58740;50.672;18.690;2024-02-21T02:27:14;21.30;;;6.70;;
71080;SDS011;58740;50.672;18.690;2024-02-21T02:29:47;21.40;;;7.00;;
71080;SDS011;58740;50.672;18.690;2024-02-21T02:32:22;21.50;;;6.90;;
71080;SDS011;58740;50.672;18.690;2024-02-21T02:34:55;17.40;;;7.30;;
71080;SDS011;58740;50.672;18.690;2024-02-21T02:37:28;13.80;;;6.70;;
71080;SDS011;58740;50.672;18.690;2024-02-21T02:40:02;13.90;;;6.10;;
71080;SDS011;58740;50.672;18.690;2024-02-21T02:42:36;14.00;;;6.00;;
71080;SDS011;58740;50.672;18.690;2024-02-21T02:45:10;15.00;;;4.90;;
71080;SDS011;58740;50.672;18.690;2024-02-21T02:47:45;16.30;;;5.40;;
71080;SDS011;58740;50.672;18.690;2024-02-21T02:50:18;14.90;;;5.20;;
71080;SDS011;58740;50.672;18.690;2024-02-21T02:52:52;13.60;;;5.20;;
71080;SDS011;58740;50.672;18.690;2024-02-21T02:55:26;12.40;;;6.00;;
71080;SDS011;58740;50.672;18.690;2024-02-21T02:57:59;16.80;;;5.10;;
71080;SDS011;58740;50.672;18.690;2024-02-21T03:00:32;22.50;;;5.80;;
71080;SDS011;58740;50.672;18.690;2024-02-21T03:03:07;13.80;;;5.00;;
71080;SDS011;58740;50.672;18.690;2024-02-21T03:05:40;15.40;;;5.30;;
71080;SDS011;58740;50.672;18.690;2024-02-21T03:08:13;18.50;;;5.30;;
71080;SDS011;58740;50.672;18.690;2024-02-21T03:10:46;15.00;;;5.20;;
71080;SDS011;58740;50.672;18.690;2024-02-21T03:13:20;18.20;;;5.30;;
71080;SDS011;58740;50.672;18.690;2024-02-21T03:15:53;14.30;;;5.10;;
71080;SDS011;58740;50.672;18.690;2024-02-21T03:18:27;12.60;;;5.30;;
71080;SDS011;58740;50.672;18.690;2024-02-21T03:21:00;10.70;;;4.80;;
71080;SDS011;58740;50.672;18.690;2024-02-21T03:23:34;14.60;;;5.00;;
71080;SDS011;58740;50.672;18.690;2024-02-21T03:26:07;13.10;;;5.10;;
71080;SDS011;58740;50.672;18.690;2024-02-21T03:28:40;18.50;;;5.90;;
71080;SDS011;58740;50.672;18.690;2024-02-21T03:31:15;14.90;;;5.00;;
71080;SDS011;58740;50.672;18.690;2024-02-21T03:33:49;16.90;;;4.60;;
71080;SDS011;58740;50.672;18.690;2024-02-21T03:36:22;15.00;;;5.20;;
71080;SDS011;58740;50.672;18.690;2024-02-21T03:38:56;11.40;;;4.20;;
71080;SDS011;58740;50.672;18.690;2024-02-21T03:41:30;19.20;;;4.90;;
71080;SDS011;58740;50.672;18.690;2024-02-21T03:44:03;16.60;;;5.20;;
71080;SDS011;58740;50.672;18.690;2024-02-21T03:46:37;16.90;;;5.00;;
71080;SDS011;58740;50.672;18.690;2024-02-21T03:49:10;18.40;;;5.20;;
71080;SDS011;58740;50.672;18.690;2024-02-21T03:51:43;15.00;;;5.10;;
71080;SDS011;58740;50.672;18.690;2024-02-21T03:54:17;18.20;;;5.20;;
71080;SDS011;58740;50.672;18.690;2024-02-21T03:56:50;13.60;;;4.40;;
71080;SDS011;58740;50.672;18.690;2024-02-21T03:59:23;11.10;;;4.70;;
71080;SDS011;58740;50.672;18.690;2024-02-21T04:01:56;13.90;;;4.10;;
71080;SDS011;58740;50.672;18.690;2024-02-21T04:04:30;13.10;;;5.00;;
71080;SDS011;58740;50.672;18.690;2024-02-21T04:07:03;16.30;;;5.00;;
71080;SDS011;58740;50.672;18.690;2024-02-21T04:09:37;15.40;;;5.40;;
71080;SDS011;58740;50.672;18.690;2024-02-21T04:12:10;18.10;;;5.20;;
71080;SDS011;58740;50.672;18.690;2024-02-21T04:14:44;11.90;;;5.20;;
71080;SDS011;58740;50.672;18.690;2024-02-21T04:17:17;16.70;;;4.40;;
71080;SDS011;58740;50.672;18.690;2024-02-21T04:19:50;15.40;;;4.20;;
71080;SDS011;58740;50.672;18.690;2024-02-21T04:22:33;22.70;;;5.70;;
71080;SDS011;58740;50.672;18.690;2024-02-21T04:25:07;12.70;;;4.10;;
71080;SDS011;58740;50.672;18.690;2024-02-21T04:27:41;14.30;;;5.10;;
71080;SDS011;58740;50.672;18.690;2024-02-21T04:30:15;16.30;;;5.20;;
71080;SDS011;58740;50.672;18.690;2024-02-21T04:32:48;12.90;;;4.80;;
71080;SDS011;58740;50.672;18.690;2024-02-21T04:35:22;17.40;;;5.80;;
71080;SDS011;58740;50.672;18.690;2024-02-21T04:37:55;19.00;;;6.40;;
71080;SDS011;58740;50.672;18.690;2024-02-21T04:40:28;18.20;;;5.30;;
71080;SDS011;58740;50.672;18.690;2024-02-21T04:43:02;19.80;;;6.60;;
71080;SDS011;58740;50.672;18.690;2024-02-21T04:45:35;35.10;;;13.20;;
71080;SDS011;58740;50.672;18.690;2024-02-21T04:48:08;30.60;;;13.00;;
71080;SDS011;58740;50.672;18.690;2024-02-21T04:50:42;32.90;;;16.70;;
71080;SDS011;58740;50.672;18.690;2024-02-21T04:53:15;24.40;;;10.20;;
71080;SDS011;58740;50.672;18.690;2024-02-21T04:55:49;18.60;;;7.70;;
71080;SDS011;58740;50.672;18.690;2024-02-21T04:58:22;24.10;;;8.20;;
71080;SDS011;58740;50.672;18.690;2024-02-21T05:00:56;16.30;;;7.80;;
71080;SDS011;58740;50.672;18.690;2024-02-21T05:03:29;16.70;;;6.40;;
71080;SDS011;58740;50.672;18.690;2024-02-21T05:06:03;15.30;;;5.40;;
71080;SDS011;58740;50.672;18.690;2024-02-21T05:08:38;17.50;;;5.70;;
71080;SDS011;58740;50.672;18.690;2024-02-21T05:11:11;12.80;;;5.00;;
71080;SDS011;58740;50.672;18.690;2024-02-21T05:13:45;13.90;;;4.80;;
71080;SDS011;58740;50.672;18.690;2024-02-21T05:16:18;11.80;;;4.70;;
71080;SDS011;58740;50.672;18.690;2024-02-21T05:18:51;14.00;;;5.90;;
71080;SDS011;58740;50.672;18.690;2024-02-21T05:21:25;16.10;;;5.90;;
71080;SDS011;58740;50.672;18.690;2024-02-21T05:23:58;15.80;;;6.20;;
71080;SDS011;58740;50.672;18.690;2024-02-21T05:26:31;13.70;;;5.30;;
71080;SDS011;58740;50.672;18.690;2024-02-21T05:29:05;16.00;;;6.50;;
71080;SDS011;58740;50.672;18.690;2024-02-21T05:31:56;14.70;;;5.50;;
71080;SDS011;58740;50.672;18.690;2024-02-21T05:34:30;16.80;;;6.90;;
71080;SDS011;58740;50.672;18.690;2024-02-21T05:37:04;20.70;;;7.80;;
71080;SDS011;58740;50.672;18.690;2024-02-21T05:39:37;13.80;;;7.20;;
71080;SDS011;58740;50.672;18.690;2024-02-21T05:42:10;15.50;;;6.30;;
71080;SDS011;58740;50.672;18.690;2024-02-21T05:44:43;13.20;;;6.20;;
71080;SDS011;58740;50.672;18.690;2024-02-21T05:47:17;15.70;;;5.90;;
71080;SDS011;58740;50.672;18.690;2024-02-21T05:49:51;16.40;;;6.70;;
71080;SDS011;58740;50.672;18.690;2024-02-21T05:52:25;14.50;;;6.30;;
71080;SDS011;58740;50.672;18.690;2024-02-21T05:54:58;12.40;;;5.80;;
71080;SDS011;58740;50.672;18.690;2024-02-21T05:57:31;13.50;;;5.90;;
71080;SDS011;58740;50.672;18.690;2024-02-21T06:00:07;20.20;;;6.90;;
71080;SDS011;58740;50.672;18.690;2024-02-21T06:02:41;22.50;;;10.90;;
71080;SDS011;58740;50.672;18.690;2024-02-21T06:05:14;20.80;;;12.20;;
71080;SDS011;58740;50.672;18.690;2024-02-21T06:07:48;21.50;;;11.30;;
71080;SDS011;58740;50.672;18.690;2024-02-21T06:10:21;21.70;;;11.10;;
71080;SDS011;58740;50.672;18.690;2024-02-21T06:12:55;18.90;;;8.60;;
71080;SDS011;58740;50.672;18.690;2024-02-21T06:15:28;14.70;;;7.80;;
71080;SDS011;58740;50.672;18.690;2024-02-21T06:18:02;18.80;;;7.30;;
71080;SDS011;58740;50.672;18.690;2024-02-21T06:20:35;17.00;;;7.90;;
71080;SDS011;58740;50.672;18.690;2024-02-21T06:23:11;21.80;;;7.60;;
71080;SDS011;58740;50.672;18.690;2024-02-21T06:25:46;14.90;;;7.00;;
71080;SDS011;58740;50.672;18.690;2024-02-21T06:28:19;21.40;;;6.90;;
71080;SDS011;58740;50.672;18.690;2024-02-21T06:30:52;14.80;;;5.70;;
71080;SDS011;58740;50.672;18.690;2024-02-21T06:33:25;14.40;;;5.40;;
71080;SDS011;58740;50.672;18.690;2024-02-21T06:35:58;15.00;;;5.70;;
71080;SDS011;58740;50.672;18.690;2024-02-21T06:38:32;14.20;;;5.90;;
71080;SDS011;58740;50.672;18.690;2024-02-21T06:41:05;16.50;;;6.70;;
71080;SDS011;58740;50.672;18.690;2024-02-21T06:43:45;16.40;;;7.10;;
71080;SDS011;58740;50.672;18.690;2024-02-21T06:46:26;13.70;;;5.90;;
71080;SDS011;58740;50.672;18.690;2024-02-21T06:49:01;19.30;;;7.20;;
71080;SDS011;58740;50.672;18.690;2024-02-21T06:51:35;14.50;;;7.10;;
71080;SDS011;58740;50.672;18.690;2024-02-21T06:54:08;15.70;;;7.00;;
71080;SDS011;58740;50.672;18.690;2024-02-21T06:56:41;12.60;;;6.80;;
71080;SDS011;58740;50.672;18.690;2024-02-21T06:59:15;20.20;;;7.20;;
71080;SDS011;58740;50.672;18.690;2024-02-21T07:01:52;11.90;;;6.20;;
71080;SDS011;58740;50.672;18.690;2024-02-21T07:04:26;13.00;;;6.20;;
71080;SDS011;58740;50.672;18.690;2024-02-21T07:06:59;16.90;;;7.00;;
71080;SDS011;58740;50.672;18.690;2024-02-21T07:09:33;15.90;;;7.50;;
71080;SDS011;58740;50.672;18.690;2024-02-21T07:12:07;18.30;;;7.30;;
71080;SDS011;58740;50.672;18.690;2024-02-21T07:14:40;16.00;;;6.80;;
71080;SDS011;58740;50.672;18.690;2024-02-21T07:17:14;14.70;;;6.60;;
71080;SDS011;58740;50.672;18.690;2024-02-21T07:19:47;15.60;;;6.40;;
71080;SDS011;58740;50.672;18.690;2024-02-21T07:22:20;12.90;;;6.40;;
71080;SDS011;58740;50.672;18.690;2024-02-21T07:24:53;12.30;;;5.40;;
71080;SDS011;58740;50.672;18.690;2024-02-21T07:27:26;14.70;;;6.30;;
71080;SDS011;58740;50.672;18.690;2024-02-21T07:30:01;15.20;;;6.10;;
71080;SDS011;58740;50.672;18.690;2024-02-21T07:32:35;18.30;;;6.70;;
71080;SDS011;58740;50.672;18.690;2024-02-21T07:35:09;14.00;;;6.50;;
71080;SDS011;58740;50.672;18.690;2024-02-21T07:37:43;14.30;;;6.70;;
71080;SDS011;58740;50.672;18.690;2024-02-21T07:40:17;15.70;;;6.00;;
71080;SDS011;58740;50.672;18.690;2024-02-21T07:42:50;15.40;;;6.30;;
71080;SDS011;58740;50.672;18.690;2024-02-21T07:45:24;17.00;;;6.10;;
71080;SDS011;58740;50.672;18.690;2024-02-21T07:47:57;24.50;;;10.40;;
71080;SDS011;58740;50.672;18.690;2024-02-21T07:50:30;17.80;;;6.50;;
71080;SDS011;58740;50.672;18.690;2024-02-21T07:53:04;14.80;;;6.50;;
71080;SDS011;58740;50.672;18.690;2024-02-21T07:55:37;14.90;;;5.70;;
71080;SDS011;58740;50.672;18.690;2024-02-21T07:58:11;14.30;;;6.60;;
71080;SDS011;58740;50.672;18.690;2024-02-21T08:00:44;13.00;;;5.70;;
71080;SDS011;58740;50.672;18.690;2024-02-21T08:03:17;19.20;;;6.10;;
71080;SDS011;58740;50.672;18.690;2024-02-21T08:05:51;19.10;;;7.20;;
71080;SDS011;58740;50.672;18.690;2024-02-21T08:08:24;17.30;;;7.40;;
71080;SDS011;58740;50.672;18.690;2024-02-21T08:10:58;22.40;;;9.50;;
71080;SDS011;58740;50.672;18.690;2024-02-21T08:13:31;22.40;;;12.40;;
71080;SDS011;58740;50.672;18.690;2024-02-21T08:16:05;17.90;;;8.60;;
71080;SDS011;58740;50.672;18.690;2024-02-21T08:18:39;20.10;;;7.00;;
71080;SDS011;58740;50.672;18.690;2024-02-21T08:21:14;15.40;;;5.80;;
71080;SDS011;58740;50.672;18.690;2024-02-21T08:23:48;11.90;;;5.50;;
71080;SDS011;58740;50.672;18.690;2024-02-21T08:26:22;17.60;;;6.00;;
71080;SDS011;58740;50.672;18.690;2024-02-21T08:28:58;20.00;;;7.80;;
71080;SDS011;58740;50.672;18.690;2024-02-21T08:31:31;13.30;;;6.10;;
71080;SDS011;58740;50.672;18.690;2024-02-21T08:34:05;13.00;;;6.20;;
71080;SDS011;58740;50.672;18.690;2024-02-21T08:36:39;12.90;;;6.00;;
71080;SDS011;58740;50.672;18.690;2024-02-21T08:39:12;18.60;;;6.30;;
71080;SDS011;58740;50.672;18.690;2024-02-21T08:41:47;15.90;;;7.00;;
71080;SDS011;58740;50.672;18.690;2024-02-21T08:44:29;14.50;;;6.20;;
71080;SDS011;58740;50.672;18.690;2024-02-21T08:47:03;16.70;;;7.00;;
71080;SDS011;58740;50.672;18.690;2024-02-21T08:49:38;13.10;;;6.10;;
71080;SDS011;58740;50.672;18.690;2024-02-21T08:52:11;21.90;;;9.40;;
71080;SDS011;58740;50.672;18.690;2024-02-21T08:54:45;18.10;;;7.20;;
71080;SDS011;58740;50.672;18.690;2024-02-21T08:57:18;14.30;;;6.40;;
71080;SDS011;58740;50.672;18.690;2024-02-21T08:59:51;17.40;;;6.30;;
71080;SDS011;58740;50.672;18.690;2024-02-21T09:02:25;17.50;;;5.90;;
71080;SDS011;58740;50.672;18.690;2024-02-21T09:04:58;15.50;;;6.50;;
71080;SDS011;58740;50.672;18.690;2024-02-21T09:07:31;15.60;;;6.20;;
71080;SDS011;58740;50.672;18.690;2024-02-21T09:10:06;19.40;;;7.10;;
71080;SDS011;58740;50.672;18.690;2024-02-21T09:12:40;13.00;;;6.40;;
71080;SDS011;58740;50.672;18.690;2024-02-21T09:15:14;18.40;;;7.70;;
71080;SDS011;58740;50.672;18.690;2024-02-21T09:17:47;18.00;;;8.10;;
71080;SDS011;58740;50.672;18.690;2024-02-21T09:20:21;19.00;;;7.60;;
71080;SDS011;58740;50.672;18.690;2024-02-21T09:22:54;15.70;;;7.00;;
71080;SDS011;58740;50.672;18.690;2024-02-21T09:25:27;14.10;;;6.50;;
71080;SDS011;58740;50.672;18.690;2024-02-21T09:28:02;15.40;;;7.40;;
71080;SDS011;58740;50.672;18.690;2024-02-21T09:30:37;14.50;;;5.60;;
71080;SDS011;58740;50.672;18.690;2024-02-21T09:33:10;16.20;;;6.00;;
71080;SDS011;58740;50.672;18.690;2024-02-21T09:35:55;19.90;;;8.60;;
71080;SDS011;58740;50.672;18.690;2024-02-21T09:38:29;17.60;;;6.90;;
71080;SDS011;58740;50.672;18.690;2024-02-21T09:41:08;16.80;;;7.20;;
71080;SDS011;58740;50.672;18.690;2024-02-21T09:43:51;15.60;;;6.80;;
71080;SDS011;58740;50.672;18.690;2024-02-21T09:46:43;17.60;;;7.60;;
71080;SDS011;58740;50.672;18.690;2024-02-21T09:49:31;14.40;;;7.10;;
71080;SDS011;58740;50.672;18.690;2024-02-21T09:52:07;18.10;;;7.80;;
71080;SDS011;58740;50.672;18.690;2024-02-21T09:54:42;21.90;;;9.20;;
71080;SDS011;58740;50.672;18.690;2024-02-21T09:57:16;16.40;;;6.10;;
71080;SDS011;58740;50.672;18.690;2024-02-21T09:59:51;11.30;;;5.40;;
71080;SDS011;58740;50.672;18.690;2024-02-21T10:02:27;14.20;;;6.10;;
71080;SDS011;58740;50.672;18.690;2024-02-21T10:05:00;16.10;;;6.50;;
71080;SDS011;58740;50.672;18.690;2024-02-21T10:07:35;18.70;;;6.30;;
71080;SDS011;58740;50.672;18.690;2024-02-21T10:10:11;16.60;;;7.60;;
71080;SDS011;58740;50.672;18.690;2024-02-21T10:12:50;15.90;;;7.80;;
71080;SDS011;58740;50.672;18.690;2024-02-21T10:15:25;15.70;;;6.70;;
71080;SDS011;58740;50.672;18.690;2024-02-21T10:18:02;17.10;;;8.90;;
71080;SDS011;58740;50.672;18.690;2024-02-21T10:20:37;22.60;;;11.90;;
71080;SDS011;58740;50.672;18.690;2024-02-21T10:23:10;23.30;;;10.30;;
71080;SDS011;58740;50.672;18.690;2024-02-21T10:25:43;17.90;;;6.90;;
71080;SDS011;58740;50.672;18.690;2024-02-21T10:28:17;20.50;;;8.50;;
71080;SDS011;58740;50.672;18.690;2024-02-21T10:30:54;16.20;;;8.20;;
71080;SDS011;58740;50.672;18.690;2024-02-21T10:33:27;15.00;;;7.40;;
71080;SDS011;58740;50.672;18.690;2024-02-21T10:36:10;18.20;;;7.10;;
71080;SDS011;58740;50.672;18.690;2024-02-21T10:38:44;19.60;;;7.20;;
71080;SDS011;58740;50.672;18.690;2024-02-21T10:41:20;16.90;;;6.70;;
71080;SDS011;58740;50.672;18.690;2024-02-21T10:43:55;15.20;;;7.90;;
71080;SDS011;58740;50.672;18.690;2024-02-21T10:46:32;17.90;;;7.80;;
71080;SDS011;58740;50.672;18.690;2024-02-21T10:49:10;20.50;;;7.50;;
71080;SDS011;58740;50.672;18.690;2024-02-21T10:51:48;16.80;;;7.30;;
71080;SDS011;58740;50.672;18.690;2024-02-21T10:54:34;13.50;;;5.90;;
71080;SDS011;58740;50.672;18.690;2024-02-21T10:57:16;14.80;;;5.70;;
71080;SDS011;58740;50.672;18.690;2024-02-21T10:59:51;11.90;;;5.70;;
71080;SDS011;58740;50.672;18.690;2024-02-21T11:02:26;14.80;;;6.90;;
71080;SDS011;58740;50.672;18.690;2024-02-21T11:05:02;21.60;;;7.70;;
71080;SDS011;58740;50.672;18.690;2024-02-21T11:07:39;16.50;;;6.30;;
71080;SDS011;58740;50.672;18.690;2024-02-21T11:10:24;20.10;;;7.70;;
71080;SDS011;58740;50.672;18.690;2024-02-21T11:13:08;18.30;;;8.50;;
71080;SDS011;58740;50.672;18.690;2024-02-21T11:15:44;22.30;;;8.90;;
71080;SDS011;58740;50.672;18.690;2024-02-21T11:18:25;17.50;;;8.00;;
71080;SDS011;58740;50.672;18.690;2024-02-21T11:20:59;18.40;;;8.10;;
71080;SDS011;58740;50.672;18.690;2024-02-21T11:23:33;19.10;;;8.20;;
71080;SDS011;58740;50.672;18.690;2024-02-21T11:26:08;18.10;;;8.60;;
71080;SDS011;58740;50.672;18.690;2024-02-21T11:28:42;22.40;;;9.90;;
71080;SDS011;58740;50.672;18.690;2024-02-21T11:31:15;21.90;;;9.50;;
71080;SDS011;58740;50.672;18.690;2024-02-21T11:33:49;16.40;;;7.70;;
71080;SDS011;58740;50.672;18.690;2024-02-21T11:36:27;21.90;;;8.90;;
71080;SDS011;58740;50.672;18.690;2024-02-21T11:39:06;20.30;;;8.60;;
71080;SDS011;58740;50.672;18.690;2024-02-21T11:41:40;21.30;;;9.30;;
71080;SDS011;58740;50.672;18.690;2024-02-21T11:44:13;20.40;;;9.10;;
71080;SDS011;58740;50.672;18.690;2024-02-21T11:46:47;19.00;;;9.90;;
71080;SDS011;58740;50.672;18.690;2024-02-21T11:49:22;24.10;;;10.00;;
71080;SDS011;58740;50.672;18.690;2024-02-21T11:52:02;16.80;;;7.70;;
71080;SDS011;58740;50.672;18.690;2024-02-21T11:54:36;23.40;;;10.40;;
71080;SDS011;58740;50.672;18.690;2024-02-21T11:57:09;20.20;;;9.40;;
71080;SDS011;58740;50.672;18.690;2024-02-21T11:59:44;22.90;;;11.20;;
71080;SDS011;58740;50.672;18.690;2024-02-21T12:02:19;23.60;;;9.20;;
71080;SDS011;58740;50.672;18.690;2024-02-21T12:04:52;20.30;;;8.60;;
71080;SDS011;58740;50.672;18.690;2024-02-21T12:07:26;20.10;;;9.90;;
71080;SDS011;58740;50.672;18.690;2024-02-21T12:10:01;21.50;;;10.30;;
71080;SDS011;58740;50.672;18.690;2024-02-21T12:12:38;19.20;;;9.60;;
71080;SDS011;58740;50.672;18.690;2024-02-21T12:15:11;17.10;;;6.90;;
71080;SDS011;58740;50.672;18.690;2024-02-21T12:17:45;21.60;;;8.20;;
71080;SDS011;58740;50.672;18.690;2024-02-21T12:20:18;17.80;;;7.80;;
71080;SDS011;58740;50.672;18.690;2024-02-21T12:22:52;19.70;;;6.90;;
71080;SDS011;58740;50.672;18.690;2024-02-21T12:25:25;17.00;;;6.60;;
71080;SDS011;58740;50.672;18.690;2024-02-21T12:28:00;17.20;;;6.40;;
71080;SDS011;58740;50.672;18.690;2024-02-21T12:30:34;14.20;;;6.30;;
71080;SDS011;58740;50.672;18.690;2024-02-21T12:33:10;12.30;;;5.20;;
71080;SDS011;58740;50.672;18.690;2024-02-21T12:35:44;13.80;;;6.10;;
71080;SDS011;58740;50.672;18.690;2024-02-21T12:38:20;12.20;;;5.90;;
71080;SDS011;58740;50.672;18.690;2024-02-21T12:40:53;15.80;;;6.60;;
71080;SDS011;58740;50.672;18.690;2024-02-21T12:43:27;14.20;;;4.70;;
71080;SDS011;58740;50.672;18.690;2024-02-21T12:46:01;15.10;;;6.00;;
71080;SDS011;58740;50.672;18.690;2024-02-21T12:48:34;15.40;;;5.50;;
71080;SDS011;58740;50.672;18.690;2024-02-21T12:51:07;13.60;;;5.60;;
71080;SDS011;58740;50.672;18.690;2024-02-21T12:53:41;12.30;;;4.70;;
71080;SDS011;58740;50.672;18.690;2024-02-21T12:56:15;16.80;;;6.70;;
71080;SDS011;58740;50.672;18.690;2024-02-21T12:58:49;15.80;;;6.60;;
71080;SDS011;58740;50.672;18.690;2024-02-21T13:01:22;13.20;;;4.70;;
71080;SDS011;58740;50.672;18.690;2024-02-21T13:03:56;14.60;;;5.30;;
71080;SDS011;58740;50.672;18.690;2024-02-21T13:06:32;11.80;;;4.80;;
71080;SDS011;58740;50.672;18.690;2024-02-21T13:09:06;12.30;;;5.10;;
71080;SDS011;58740;50.672;18.690;2024-02-21T13:11:41;12.40;;;5.60;;
71080;SDS011;58740;50.672;18.690;2024-02-21T13:14:16;18.00;;;5.00;;
71080;SDS011;58740;50.672;18.690;2024-02-21T13:16:50;11.40;;;4.80;;
71080;SDS011;58740;50.672;18.690;2024-02-21T13:19:24;11.60;;;4.70;;
71080;SDS011;58740;50.672;18.690;2024-02-21T13:21:57;13.90;;;5.00;;
71080;SDS011;58740;50.672;18.690;2024-02-21T13:24:31;10.80;;;4.60;;
71080;SDS011;58740;50.672;18.690;2024-02-21T13:27:04;14.30;;;5.00;;
71080;SDS011;58740;50.672;18.690;2024-02-21T13:29:37;15.60;;;5.90;;
71080;SDS011;58740;50.672;18.690;2024-02-21T13:32:11;14.20;;;5.80;;
71080;SDS011;58740;50.672;18.690;2024-02-21T13:34:45;14.60;;;6.40;;
71080;SDS011;58740;50.672;18.690;2024-02-21T13:37:19;14.50;;;6.50;;
71080;SDS011;58740;50.672;18.690;2024-02-21T13:39:53;18.00;;;6.80;;
71080;SDS011;58740;50.672;18.690;2024-02-21T13:42:26;24.20;;;8.70;;
71080;SDS011;58740;50.672;18.690;2024-02-21T13:45:00;20.80;;;6.90;;
71080;SDS011;58740;50.672;18.690;2024-02-21T13:47:35;15.10;;;6.10;;
71080;SDS011;58740;50.672;18.690;2024-02-21T13:50:10;15.30;;;6.10;;
71080;SDS011;58740;50.672;18.690;2024-02-21T13:52:45;14.50;;;6.40;;
71080;SDS011;58740;50.672;18.690;2024-02-21T13:55:18;16.40;;;6.80;;
71080;SDS011;58740;50.672;18.690;2024-02-21T13:57:52;19.80;;;7.50;;
71080;SDS011;58740;50.672;18.690;2024-02-21T14:00:26;17.00;;;6.90;;
71080;SDS011;58740;50.672;18.690;2024-02-21T14:02:59;16.40;;;7.90;;
71080;SDS011;58740;50.672;18.690;2024-02-21T14:05:32;17.30;;;6.50;;
71080;SDS011;58740;50.672;18.690;2024-02-21T14:08:09;15.20;;;6.70;;
71080;SDS011;58740;50.672;18.690;2024-02-21T14:10:42;17.40;;;6.10;;
71080;SDS011;58740;50.672;18.690;2024-02-21T14:13:16;19.20;;;7.00;;
71080;SDS011;58740;50.672;18.690;2024-02-21T14:15:51;21.30;;;7.30;;
71080;SDS011;58740;50.672;18.690;2024-02-21T14:18:27;17.10;;;7.70;;
71080;SDS011;58740;50.672;18.690;2024-02-21T14:21:01;19.30;;;7.50;;
71080;SDS011;58740;50.672;18.690;2024-02-21T14:23:34;23.50;;;7.20;;
71080;SDS011;58740;50.672;18.690;2024-02-21T14:26:08;19.20;;;7.80;;
71080;SDS011;58740;50.672;18.690;2024-02-21T14:28:42;24.20;;;8.00;;
71080;SDS011;58740;50.672;18.690;2024-02-21T14:31:17;15.40;;;6.70;;
71080;SDS011;58740;50.672;18.690;2024-02-21T14:33:50;23.40;;;8.40;;
71080;SDS011;58740;50.672;18.690;2024-02-21T14:36:24;21.50;;;8.70;;
71080;SDS011;58740;50.672;18.690;2024-02-21T14:38:57;17.10;;;7.20;;
71080;SDS011;58740;50.672;18.690;2024-02-21T14:41:33;14.80;;;6.00;;
71080;SDS011;58740;50.672;18.690;2024-02-21T14:44:07;19.00;;;6.80;;
71080;SDS011;58740;50.672;18.690;2024-02-21T14:46:41;23.20;;;8.50;;
71080;SDS011;58740;50.672;18.690;2024-02-21T14:49:15;18.00;;;7.00;;
71080;SDS011;58740;50.672;18.690;2024-02-21T14:51:51;13.60;;;6.30;;
71080;SDS011;58740;50.672;18.690;2024-02-21T14:54:24;19.00;;;6.80;;
71080;SDS011;58740;50.672;18.690;2024-02-21T14:56:57;16.70;;;6.50;;
71080;SDS011;58740;50.672;18.690;2024-02-21T14:59:31;16.40;;;6.20;;
71080;SDS011;58740;50.672;18.690;2024-02-21T15:02:05;18.20;;;7.30;;